createdAt,value
2018-08-03T00:01:31.361Z,4.33
2018-08-03T00:04:00.471Z,4.53
2018-08-03T00:06:29.449Z,4.60
2018-08-03T00:08:58.542Z,4.60
2018-08-03T00:11:27.509Z,4.03
2018-08-03T00:13:56.735Z,4.20
2018-08-03T00:16:25.989Z,4.20
2018-08-03T00:18:55.103Z,4.43
2018-08-03T00:21:24.161Z,4.03
2018-08-03T00:23:53.404Z,4.67
2018-08-03T00:26:22.720Z,3.97
2018-08-03T00:28:51.746Z,4.50
2018-08-03T00:31:21.655Z,4.10
2018-08-03T00:33:50.611Z,3.83
2018-08-03T00:36:19.913Z,4.67
2018-08-03T00:38:48.865Z,4.17
2018-08-03T00:41:17.969Z,4.30
2018-08-03T00:43:47.180Z,3.80
2018-08-03T00:46:16.154Z,4.00
2018-08-03T00:48:45.260Z,4.30
2018-08-03T00:51:14.247Z,3.80
2018-08-03T00:53:43.355Z,4.00
2018-08-03T00:56:12.310Z,4.30
2018-08-03T00:58:41.355Z,4.13
2018-08-03T01:01:10.404Z,3.90
2018-08-03T01:03:41.822Z,4.13
2018-08-03T01:06:10.745Z,4.10
2018-08-03T01:08:39.764Z,3.80
2018-08-03T01:11:08.949Z,4.10
2018-08-03T01:13:37.941Z,3.80
2018-08-03T01:16:07.379Z,4.20
2018-08-03T01:18:36.324Z,4.00
2018-08-03T01:21:05.450Z,4.10
2018-08-03T01:23:34.554Z,4.57
2018-08-03T01:26:03.863Z,4.00
2018-08-03T01:28:32.821Z,4.23
2018-08-03T01:31:01.798Z,4.20
2018-08-03T01:33:31.120Z,4.20
2018-08-03T01:36:00.845Z,4.13
2018-08-03T01:38:29.875Z,3.37
2018-08-03T01:40:59.930Z,4.40
2018-08-03T01:43:28.999Z,3.90
2018-08-03T01:45:58.033Z,4.20
2018-08-03T01:48:27.097Z,3.80
2018-08-03T01:50:56.314Z,4.20
2018-08-03T01:53:25.289Z,4.47
2018-08-03T01:55:54.273Z,3.90
2018-08-03T01:58:23.300Z,3.87
2018-08-03T02:00:52.377Z,3.77
2018-08-03T02:03:21.394Z,5.40
2018-08-03T02:05:50.477Z,4.63
2018-08-03T02:08:19.441Z,3.73
2018-08-03T02:10:48.735Z,3.90
2018-08-03T02:13:17.879Z,4.17
2018-08-03T02:15:46.953Z,4.83
2018-08-03T02:18:16.034Z,4.30
2018-08-03T02:20:45.219Z,4.50
2018-08-03T02:23:14.424Z,4.00
2018-08-03T02:25:43.399Z,4.57
2018-08-03T02:28:12.534Z,3.60
2018-08-03T02:30:41.908Z,4.00
2018-08-03T02:33:11.102Z,3.90
2018-08-03T02:35:40.371Z,3.90
2018-08-03T02:38:09.392Z,4.67
2018-08-03T02:40:38.701Z,4.40
2018-08-03T02:43:07.890Z,4.50
2018-08-03T02:45:37.130Z,4.07
2018-08-03T02:48:06.481Z,4.33
2018-08-03T02:50:35.576Z,4.37
2018-08-03T02:53:04.954Z,3.80
2018-08-03T02:55:40.665Z,4.10
2018-08-03T02:58:09.896Z,4.83
2018-08-03T03:00:39.136Z,4.40
2018-08-03T03:03:08.728Z,4.80
2018-08-03T03:05:37.925Z,5.27
2018-08-03T03:08:07.816Z,5.43
2018-08-03T03:10:37.265Z,5.40
2018-08-03T03:13:07.119Z,5.13
2018-08-03T03:15:36.583Z,5.87
2018-08-03T03:18:05.997Z,5.97
2018-08-03T03:20:35.515Z,5.20
2018-08-03T03:23:04.435Z,5.17
2018-08-03T03:25:33.843Z,5.37
2018-08-03T03:28:03.126Z,5.77
2018-08-03T03:30:32.346Z,5.80
2018-08-03T03:33:01.964Z,5.60
2018-08-03T03:35:31.073Z,5.37
2018-08-03T03:38:00.333Z,6.20
2018-08-03T03:40:29.551Z,6.03
2018-08-03T03:42:58.595Z,6.00
2018-08-03T03:45:27.714Z,6.00
2018-08-03T03:47:56.817Z,6.30
2018-08-03T03:50:25.839Z,6.47
2018-08-03T03:52:54.908Z,6.43
2018-08-03T03:55:24.156Z,5.97
2018-08-03T03:57:53.333Z,6.13
2018-08-03T04:00:22.624Z,6.17
2018-08-03T04:02:51.616Z,7.37
2018-08-03T04:05:21.086Z,6.60
2018-08-03T04:07:50.374Z,7.00
2018-08-03T04:10:19.477Z,6.40
2018-08-03T04:12:48.569Z,5.87
2018-08-03T04:15:17.593Z,6.27
2018-08-03T04:17:46.555Z,6.27
2018-08-03T04:20:15.581Z,6.53
2018-08-03T04:22:44.635Z,6.63
2018-08-03T04:25:13.779Z,6.50
2018-08-03T04:27:42.737Z,6.13
2018-08-03T04:30:12.175Z,7.00
2018-08-03T04:32:41.316Z,6.23
2018-08-03T04:35:10.404Z,6.53
2018-08-03T04:37:39.432Z,6.27
2018-08-03T04:40:08.587Z,6.37
2018-08-03T04:42:37.578Z,7.10
2018-08-03T04:45:06.797Z,6.17
2018-08-03T04:47:36.109Z,5.67
2018-08-03T04:50:05.525Z,6.30
2018-08-03T04:52:34.474Z,6.70
2018-08-03T04:55:03.801Z,5.40
2018-08-03T04:57:32.921Z,5.90
2018-08-03T05:00:01.878Z,5.57
2018-08-03T05:02:30.867Z,8.73
2018-08-03T05:04:59.972Z,6.17
2018-08-03T05:07:29.158Z,6.20
2018-08-03T05:09:58.429Z,6.97
2018-08-03T05:12:27.510Z,9.47
2018-08-03T05:14:56.761Z,6.00
2018-08-03T05:17:25.945Z,6.60
2018-08-03T05:19:55.265Z,7.17
2018-08-03T05:22:24.567Z,6.00
2018-08-03T05:24:53.942Z,7.17
2018-08-03T05:27:22.909Z,6.47
2018-08-03T05:29:51.942Z,6.80
2018-08-03T05:32:21.173Z,9.20
2018-08-03T05:34:50.212Z,6.37
2018-08-03T05:37:19.366Z,5.87
2018-08-03T05:39:48.524Z,6.47
2018-08-03T05:42:17.812Z,5.53
2018-08-03T05:44:47.013Z,6.20
2018-08-03T05:47:16.238Z,5.47
2018-08-03T05:49:45.165Z,4.97
2018-08-03T05:52:14.159Z,5.62
2018-08-03T05:54:43.331Z,7.25
2018-08-03T05:57:12.786Z,6.12
2018-08-03T05:59:42.133Z,4.85
2018-08-03T06:02:11.606Z,5.62
2018-08-03T06:04:40.891Z,5.53
2018-08-03T06:07:11.296Z,5.25
2018-08-03T06:09:40.998Z,5.08
2018-08-03T06:12:11.720Z,5.25
2018-08-03T06:14:41.244Z,6.92
2018-08-03T06:17:10.394Z,7.03
2018-08-03T06:19:40.455Z,7.08
2018-08-03T06:22:10.042Z,6.83
2018-08-03T06:24:39.237Z,5.65
2018-08-03T06:27:08.528Z,5.70
2018-08-03T06:29:38.722Z,5.72
2018-08-03T06:32:08.469Z,5.70
2018-08-03T06:34:38.121Z,5.22
2018-08-03T06:37:07.887Z,5.50
2018-08-03T06:39:37.394Z,5.10
2018-08-03T06:42:06.542Z,5.33
2018-08-03T06:44:35.304Z,4.78
2018-08-03T06:47:04.501Z,5.10
2018-08-03T06:49:33.744Z,5.30
2018-08-03T06:52:03.022Z,5.45
2018-08-03T06:54:32.762Z,5.35
2018-08-03T06:57:01.862Z,4.42
2018-08-03T06:59:30.887Z,4.95
2018-08-03T07:02:00.168Z,5.55
2018-08-03T07:04:29.313Z,4.85
2018-08-03T07:06:58.375Z,4.92
2018-08-03T07:09:27.858Z,4.67
2018-08-03T07:11:57.223Z,5.17
2018-08-03T07:14:26.535Z,5.03
2018-08-03T07:16:55.393Z,5.03
2018-08-03T07:19:24.818Z,5.15
2018-08-03T07:21:54.284Z,5.35
2018-08-03T07:24:23.394Z,5.42
2018-08-03T07:26:52.592Z,5.97
2018-08-03T07:29:22.257Z,5.58
2018-08-03T07:31:51.382Z,5.20
2018-08-03T07:34:20.587Z,5.72
2018-08-03T07:36:49.782Z,5.60
2018-08-03T07:39:18.832Z,5.85
2018-08-03T07:41:47.934Z,5.92
2018-08-03T07:44:17.093Z,4.83
2018-08-03T07:46:46.474Z,5.58
2018-08-03T07:49:15.545Z,5.28
2018-08-03T07:51:44.643Z,5.45
2018-08-03T07:54:13.885Z,4.78
2018-08-03T07:56:43.096Z,6.00
2018-08-03T07:59:12.198Z,5.30
2018-08-03T08:01:41.869Z,4.92
2018-08-03T08:04:11.094Z,5.40
2018-08-03T08:06:40.882Z,5.50
2018-08-03T08:09:11.524Z,5.25
2018-08-03T08:11:40.723Z,5.55
2018-08-03T08:14:09.968Z,5.17
2018-08-03T08:16:39.320Z,4.90
2018-08-03T08:19:08.366Z,5.28
2018-08-03T08:21:38.021Z,5.87
2018-08-03T08:24:07.362Z,5.03
2018-08-03T08:26:36.648Z,5.78
2018-08-03T08:29:05.874Z,5.58
2018-08-03T08:31:35.079Z,5.72
2018-08-03T08:34:04.356Z,5.65
2018-08-03T08:36:34.306Z,6.05
2018-08-03T08:39:04.393Z,6.42
2018-08-03T08:41:35.614Z,6.00
2018-08-03T08:44:04.953Z,6.20
2018-08-03T08:46:34.057Z,6.22
2018-08-03T08:49:03.193Z,6.33
2018-08-03T08:51:33.120Z,5.58
2018-08-03T08:54:02.051Z,6.85
2018-08-03T08:56:31.208Z,6.00
2018-08-03T08:59:00.339Z,5.87
2018-08-03T09:01:29.617Z,6.47
2018-08-03T09:03:58.475Z,5.60
2018-08-03T09:06:27.544Z,5.58
2018-08-03T09:08:56.605Z,6.53
2018-08-03T09:11:25.505Z,5.92
2018-08-03T09:13:54.452Z,6.50
2018-08-03T09:16:23.734Z,5.75
2018-08-03T09:18:52.989Z,5.10
2018-08-03T09:21:22.035Z,6.08
2018-08-03T09:23:51.496Z,5.75
2018-08-03T09:26:20.377Z,5.20
2018-08-03T09:28:49.335Z,6.33
2018-08-03T09:31:18.551Z,6.45
2018-08-03T09:33:47.058Z,6.25
2018-08-03T09:36:16.207Z,6.55
2018-08-03T09:38:45.379Z,6.25
2018-08-03T09:41:14.528Z,7.20
2018-08-03T09:43:43.845Z,8.58
2018-08-03T09:46:13.097Z,7.05
2018-08-03T09:48:42.466Z,7.85
2018-08-03T09:51:11.513Z,7.35
2018-08-03T09:53:40.567Z,6.37
2018-08-03T09:56:09.852Z,6.65
2018-08-03T09:58:39.089Z,6.40
2018-08-03T10:01:10.399Z,6.72
2018-08-03T10:03:40.521Z,6.55
2018-08-03T10:06:10.046Z,6.30
2018-08-03T10:08:40.119Z,6.92
2018-08-03T10:11:09.811Z,6.87
2018-08-03T10:13:38.971Z,8.20
2018-08-03T10:16:08.014Z,5.85
2018-08-03T10:18:37.546Z,6.95
2018-08-03T10:21:06.861Z,7.60
2018-08-03T10:23:35.937Z,6.65
2018-08-03T10:26:05.086Z,6.55
2018-08-03T10:28:34.113Z,6.60
2018-08-03T10:31:03.523Z,7.37
2018-08-03T10:33:32.852Z,6.85
2018-08-03T10:36:01.994Z,5.65
2018-08-03T10:38:31.135Z,5.95
2018-08-03T10:41:00.091Z,7.03
2018-08-03T10:43:29.177Z,6.25
2018-08-03T10:45:58.302Z,5.75
2018-08-03T10:48:27.507Z,5.50
2018-08-03T10:50:56.535Z,5.00
2018-08-03T10:53:25.657Z,5.30
2018-08-03T10:55:54.873Z,5.20
2018-08-03T10:58:24.309Z,5.53
2018-08-03T11:00:53.312Z,5.37
2018-08-03T11:03:22.492Z,5.03
2018-08-03T11:05:51.704Z,5.95
2018-08-03T11:08:20.865Z,5.72
2018-08-03T11:10:49.918Z,4.90
2018-08-03T11:13:19.271Z,6.10
2018-08-03T11:15:48.444Z,5.85
2018-08-03T11:18:17.784Z,5.45
2018-08-03T11:20:46.908Z,5.08
2018-08-03T11:23:15.934Z,7.15
2018-08-03T11:25:45.108Z,5.58
2018-08-03T11:41:14.130Z,4.62
2018-08-03T11:43:42.716Z,5.47
2018-08-03T11:46:11.780Z,7.15
2018-08-03T11:48:40.735Z,13.15
2018-08-03T11:51:09.640Z,4.60
2018-08-03T11:53:38.619Z,4.78
2018-08-03T11:56:08.229Z,4.67
2018-08-03T11:58:37.478Z,5.37
2018-08-03T12:01:06.646Z,4.75
2018-08-03T12:03:35.983Z,6.47
2018-08-03T12:06:04.929Z,4.97
2018-08-03T12:08:34.052Z,5.92
2018-08-03T12:11:03.015Z,4.60
2018-08-03T12:13:32.107Z,7.25
2018-08-03T12:16:01.653Z,5.20
2018-08-03T12:18:30.895Z,4.83
2018-08-03T12:20:59.942Z,5.22
2018-08-03T12:23:29.039Z,5.12
2018-08-03T12:25:58.296Z,5.50
2018-08-03T12:28:27.502Z,5.67
2018-08-03T12:30:56.712Z,5.95
2018-08-03T12:33:25.913Z,6.00
2018-08-03T12:35:55.092Z,5.62
2018-08-03T12:38:24.405Z,5.50
2018-08-03T12:40:54.383Z,5.35
2018-08-03T12:43:23.414Z,5.65
2018-08-03T12:45:52.664Z,5.25
2018-08-03T12:48:21.855Z,5.65
2018-08-03T12:50:50.870Z,5.70
2018-08-03T12:53:20.092Z,5.67
2018-08-03T12:55:49.154Z,5.35
2018-08-03T12:58:18.243Z,5.58
2018-08-03T13:00:47.354Z,5.22
2018-08-03T13:03:16.460Z,5.92
2018-08-03T13:05:45.565Z,5.50
2018-08-03T13:08:14.717Z,5.60
2018-08-03T13:10:44.158Z,5.58
2018-08-03T13:13:13.281Z,5.22
2018-08-03T13:15:42.458Z,5.78
2018-08-03T13:18:11.642Z,5.45
2018-08-03T13:20:41.032Z,4.97
2018-08-03T13:23:10.117Z,5.58
2018-08-03T13:25:39.313Z,5.58
2018-08-03T13:28:08.408Z,5.30
2018-08-03T13:30:37.440Z,5.40
2018-08-03T13:33:06.584Z,5.45
2018-08-03T13:35:35.807Z,5.10
2018-08-03T13:38:04.794Z,5.20
2018-08-03T13:40:33.755Z,5.33
2018-08-03T13:43:02.804Z,5.17
2018-08-03T13:45:31.862Z,5.20
2018-08-03T14:01:00.474Z,5.30
2018-08-03T14:03:29.739Z,6.20
2018-08-03T14:05:58.918Z,6.05
2018-08-03T14:08:28.308Z,4.92
2018-08-03T14:10:57.723Z,4.92
2018-08-03T14:13:26.921Z,5.17
2018-08-03T14:15:56.186Z,5.45
2018-08-03T14:18:25.576Z,5.50
2018-08-03T14:20:54.514Z,5.05
2018-08-03T14:23:23.913Z,6.17
2018-08-03T14:25:52.946Z,6.20
2018-08-03T14:28:22.206Z,6.05
2018-08-03T14:30:51.408Z,6.00
2018-08-03T14:33:20.749Z,5.10
2018-08-03T14:35:50.182Z,4.95
2018-08-03T14:38:19.246Z,5.08
2018-08-03T14:40:48.459Z,5.05
2018-08-03T14:43:17.834Z,6.33
2018-08-03T14:45:47.106Z,5.30
2018-08-03T14:48:16.306Z,5.70
2018-08-03T14:50:45.494Z,5.30
2018-08-03T14:53:14.842Z,5.85
2018-08-03T14:55:43.952Z,6.37
2018-08-03T14:58:13.240Z,5.62
2018-08-03T15:00:42.887Z,5.58
2018-08-03T15:03:12.163Z,4.97
2018-08-03T15:05:41.530Z,5.75
2018-08-03T15:08:10.763Z,5.70
2018-08-03T15:10:39.960Z,5.65
2018-08-03T15:13:09.128Z,5.62
2018-08-03T15:15:38.265Z,5.00
2018-08-03T15:18:08.064Z,6.15
2018-08-03T15:20:37.146Z,5.50
2018-08-03T15:23:06.742Z,5.05
2018-08-03T15:25:36.202Z,5.33
2018-08-03T15:28:05.147Z,5.60
2018-08-03T15:30:34.294Z,5.25
2018-08-03T15:33:03.691Z,5.45
2018-08-03T15:35:33.316Z,5.53
2018-08-03T15:38:02.663Z,4.90
2018-08-03T15:40:32.182Z,5.70
2018-08-03T15:43:01.299Z,5.28
2018-08-03T15:45:30.489Z,5.08
2018-08-03T15:47:59.564Z,5.45
2018-08-03T15:50:28.744Z,4.95
2018-08-03T15:52:58.104Z,5.35
2018-08-03T15:55:27.429Z,5.10
2018-08-03T15:57:56.640Z,4.80
2018-08-03T16:00:26.299Z,5.45
2018-08-03T16:02:55.315Z,5.40
2018-08-03T16:05:24.644Z,5.03
2018-08-03T16:07:53.768Z,5.30
2018-08-03T16:10:22.863Z,6.42
2018-08-03T16:12:52.410Z,4.75
2018-08-03T16:15:21.819Z,5.28
2018-08-03T16:17:51.506Z,5.53
2018-08-03T16:20:20.628Z,5.10
2018-08-03T16:22:49.838Z,4.70
2018-08-03T16:25:19.580Z,5.20
2018-08-03T16:27:48.124Z,4.90
2018-08-03T16:30:17.545Z,5.43
2018-08-03T16:32:47.300Z,5.05
2018-08-03T16:35:16.560Z,5.50
2018-08-03T16:37:45.751Z,4.95
2018-08-03T16:40:15.211Z,5.08
2018-08-03T16:42:44.837Z,5.85
2018-08-03T16:45:14.655Z,5.90
2018-08-03T16:47:43.967Z,4.90
2018-08-03T16:50:13.797Z,5.58
2018-08-03T16:52:42.721Z,5.20
2018-08-03T16:55:12.182Z,4.75
2018-08-03T16:57:41.189Z,5.13
2018-08-03T17:00:10.513Z,5.00
2018-08-03T17:02:39.786Z,4.83
2018-08-03T17:05:08.917Z,5.17
2018-08-03T17:07:38.277Z,6.20
2018-08-03T17:10:07.154Z,5.25
2018-08-03T17:12:36.142Z,5.60
2018-08-03T17:28:04.793Z,5.87
2018-08-03T17:30:34.167Z,5.60
2018-08-03T17:33:03.717Z,5.57
2018-08-03T17:35:33.204Z,5.77
2018-08-03T17:38:02.707Z,6.40
2018-08-03T17:40:32.515Z,6.60
2018-08-03T17:43:02.206Z,5.97
2018-08-03T17:45:31.691Z,5.23
2018-08-03T17:48:01.433Z,6.23
2018-08-03T17:50:30.887Z,6.23
2018-08-03T17:53:00.184Z,6.47
2018-08-03T17:55:29.321Z,6.17
2018-08-03T17:57:58.430Z,6.53
2018-08-03T18:00:27.608Z,5.80
2018-08-03T18:02:56.992Z,5.67
2018-08-03T18:05:26.090Z,6.20
2018-08-03T18:07:55.582Z,5.07
2018-08-03T18:10:24.925Z,5.20
2018-08-03T18:12:54.136Z,5.13
2018-08-03T18:15:23.243Z,4.97
2018-08-03T18:17:52.317Z,4.93
2018-08-03T18:20:21.515Z,4.67
2018-08-03T18:22:50.577Z,5.30
2018-08-03T18:25:19.698Z,4.57
2018-08-03T18:27:48.673Z,4.97
2018-08-03T18:30:17.922Z,5.80
2018-08-03T18:32:46.865Z,4.03
2018-08-03T18:35:15.958Z,4.43
2018-08-03T18:37:45.018Z,4.93
2018-08-03T18:40:14.700Z,4.40
2018-08-03T18:42:45.605Z,4.60
2018-08-03T18:45:14.805Z,5.03
2018-08-03T18:47:43.942Z,4.60
2018-08-03T18:50:13.728Z,4.77
2018-08-03T18:52:44.421Z,4.20
2018-08-03T18:55:13.412Z,4.90
2018-08-03T18:57:42.313Z,5.17
2018-08-03T19:00:11.636Z,5.10
2018-08-03T19:02:40.676Z,4.83
2018-08-03T19:05:10.112Z,4.57
2018-08-03T19:07:39.156Z,4.67
2018-08-03T19:10:08.295Z,4.30
2018-08-03T19:12:37.296Z,5.00
2018-08-03T19:15:07.018Z,5.13
2018-08-03T19:17:36.082Z,4.30
2018-08-03T19:20:05.446Z,4.63
2018-08-03T19:22:34.679Z,4.43
2018-08-03T19:25:03.817Z,4.30
2018-08-03T19:27:33.012Z,4.50
2018-08-03T19:30:01.668Z,4.87
2018-08-03T19:32:30.854Z,4.20
2018-08-03T19:35:00.133Z,4.30
2018-08-03T19:37:29.195Z,3.93
2018-08-03T19:39:58.436Z,4.30
2018-08-03T19:42:27.636Z,4.40
2018-08-03T19:44:56.703Z,4.67
2018-08-03T19:47:25.836Z,4.93
2018-08-03T20:02:54.421Z,5.13
2018-08-03T20:05:23.064Z,5.77
2018-08-03T20:07:52.656Z,5.60
2018-08-03T20:10:22.125Z,5.00
2018-08-03T20:12:51.277Z,5.40
2018-08-03T20:15:21.542Z,5.53
2018-08-03T20:17:50.776Z,5.10
2018-08-03T20:20:21.180Z,4.60
2018-08-03T20:22:51.298Z,4.90
2018-08-03T20:25:20.640Z,5.17
2018-08-03T20:27:49.903Z,4.97
2018-08-03T20:30:19.628Z,4.77
2018-08-03T20:32:49.055Z,5.57
2018-08-03T20:35:18.251Z,5.00
2018-08-03T20:37:47.624Z,4.97
2018-08-03T20:40:16.836Z,4.77
2018-08-03T20:42:46.060Z,5.27
2018-08-03T20:45:15.691Z,6.00
2018-08-03T20:47:45.178Z,4.70
2018-08-03T20:50:14.232Z,5.30
2018-08-03T20:52:43.481Z,4.40
2018-08-03T20:55:12.673Z,4.37
2018-08-03T20:57:42.229Z,4.57
2018-08-03T21:00:11.468Z,6.67
2018-08-03T21:02:41.012Z,5.50
2018-08-03T21:05:13.058Z,5.47
2018-08-03T21:07:42.262Z,5.40
2018-08-03T21:10:11.880Z,6.53
2018-08-03T21:12:41.044Z,5.70
2018-08-03T21:15:10.354Z,6.17
2018-08-03T21:17:42.211Z,5.23
2018-08-03T21:20:16.441Z,6.27
2018-08-03T21:22:45.751Z,6.30
2018-08-03T21:25:14.983Z,5.67
2018-08-03T21:27:43.962Z,5.87
2018-08-03T21:30:13.042Z,5.90
2018-08-03T21:32:41.948Z,5.37
2018-08-03T21:35:11.199Z,6.13
2018-08-03T21:37:40.247Z,4.20
2018-08-03T21:40:09.511Z,5.10
2018-08-03T21:42:38.604Z,5.17
2018-08-03T21:45:08.135Z,4.77
2018-08-03T21:47:38.149Z,4.87
2018-08-03T21:50:07.505Z,5.10
2018-08-03T21:52:37.880Z,5.50
2018-08-03T21:55:06.854Z,5.30
2018-08-03T21:57:36.526Z,5.20
2018-08-03T22:00:09.221Z,5.70
2018-08-03T22:02:38.688Z,4.90
2018-08-03T22:05:08.228Z,5.20
2018-08-03T22:07:37.965Z,5.43
2018-08-03T22:10:07.358Z,4.83
2018-08-03T22:12:36.864Z,5.27
2018-08-03T22:15:06.704Z,5.50
2018-08-03T22:17:35.348Z,4.77
2018-08-03T22:20:05.869Z,5.37
2018-08-03T22:22:35.169Z,4.60
2018-08-03T22:25:04.692Z,5.03
2018-08-03T22:27:33.768Z,4.70
2018-08-03T22:30:02.866Z,5.00
2018-08-03T22:32:31.765Z,4.93
2018-08-03T22:35:00.925Z,4.53
2018-08-03T22:37:29.996Z,5.03
2018-08-03T22:39:59.052Z,5.27
2018-08-03T22:42:28.234Z,4.60
2018-08-03T22:44:57.202Z,4.97
2018-08-03T22:47:26.690Z,4.90
2018-08-03T22:49:55.808Z,4.73
2018-08-03T22:52:24.872Z,4.53
2018-08-03T22:54:54.121Z,4.93
2018-08-03T22:57:23.185Z,4.60
2018-08-03T22:59:52.225Z,5.50
2018-08-03T23:02:21.579Z,5.03
2018-08-03T23:04:50.891Z,5.87
2018-08-03T23:07:20.276Z,5.13
2018-08-03T23:09:49.270Z,5.10
2018-08-03T23:12:18.377Z,5.50
2018-08-03T23:14:47.469Z,4.47
2018-08-03T23:17:16.703Z,5.03
2018-08-03T23:19:46.047Z,5.07
2018-08-03T23:22:15.145Z,4.60
2018-08-03T23:24:44.254Z,4.93
2018-08-03T23:27:13.306Z,5.30
2018-08-03T23:29:42.257Z,4.87
2018-08-03T23:32:11.233Z,4.80
2018-08-03T23:34:40.226Z,5.10
2018-08-03T23:37:09.205Z,5.37
2018-08-03T23:39:38.321Z,4.67
2018-08-03T23:42:07.564Z,4.00
2018-08-03T23:44:36.652Z,4.80
2018-08-03T23:47:05.706Z,4.70
2018-08-03T23:49:34.681Z,4.97
2018-08-03T23:52:03.722Z,4.33
2018-08-03T23:54:32.462Z,4.77
2018-08-03T23:57:01.582Z,4.90
2018-08-03T23:59:30.594Z,4.37
